Time;durP1;ratioP1;P1;durP2;ratioP2;P2;SDS_P1;SDS_P2;PMS_P1;PMS_P2;Temp;Humidity;BMP_temperature;BMP_pressure;BME280_temperature;BME280_humidity;BME280_pressure;Samples;Min_cycle;Max_cycle;Signal;HPM_P1;HPM_P2
2022/04/20 06:30:13;;;;;;;13.37;12.70;;;14.40;78.00;;;;;;6206887;22;20456;-73
2022/04/20 06:32:40;;;;;;;13.70;13.00;;;14.00;76.20;;;;;;6213317;23;20393;-73
2022/04/20 06:35:08;;;;;;;13.07;12.30;;;13.80;76.60;;;;;;6212710;23;20412;-73
2022/04/20 06:37:34;;;;;;;12.17;11.63;;;13.80;76.50;;;;;;6213539;23;21012;-73
2022/04/20 06:40:01;;;;;;;13.27;12.67;;;13.70;75.70;;;;;;6213609;23;20424;-73
2022/04/20 06:42:28;;;;;;;12.47;11.83;;;13.80;76.80;;;;;;6213351;23;20884;-74
2022/04/20 06:44:55;;;;;;;12.93;12.23;;;13.80;75.10;;;;;;6213512;23;20413;-74
2022/04/20 06:47:23;;;;;;;13.37;12.50;;;14.20;73.90;;;;;;6213346;23;20476;-74
2022/04/20 06:49:49;;;;;;;12.30;11.70;;;13.90;72.00;;;;;;6213492;23;20416;-74
2022/04/20 07:00:29;;;;;;;12.80;12.20;;;14.10;72.80;;;;;;6213457;23;20705;-74
2022/04/20 07:03:00;;;;;;;13.33;12.63;;;13.90;71.90;;;;;;6213603;23;20411;-74
2022/04/20 07:05:27;;;;;;;13.37;12.67;;;13.70;71.60;;;;;;6213294;23;20445;-73
2022/04/20 07:07:54;;;;;;;12.07;11.47;;;13.70;72.10;;;;;;6208844;23;20412;-73
2022/04/20 07:10:21;;;;;;;12.60;11.90;;;13.70;71.80;;;;;;6212889;23;20959;-75
2022/04/20 07:12:48;;;;;;;13.47;12.67;;;13.30;72.80;;;;;;6212744;23;20899;-72
2022/04/20 07:15:14;;;;;;;13.33;12.63;;;12.90;72.70;;;;;;6212774;23;20420;-74
2022/04/20 07:17:41;;;;;;;13.00;12.33;;;13.20;73.90;;;;;;6212712;23;20901;-73
2022/04/20 07:20:13;;;;;;;12.80;12.20;;;14.30;71.50;;;;;;6211960;23;20423;-73
2022/04/20 07:22:40;;;;;;;12.53;12.00;;;14.10;68.90;;;;;;6212528;23;20420;-73
2022/04/20 07:25:07;;;;;;;12.40;11.80;;;14.00;70.00;;;;;;6212311;23;20412;-72
2022/04/20 07:27:34;;;;;;;13.00;12.40;;;13.90;69.70;;;;;;6212317;23;20483;-72
2022/04/20 07:30:01;;;;;;;13.33;12.63;;;13.90;69.80;;;;;;6211633;23;20444;-73
2022/04/20 07:32:27;;;;;;;12.50;11.90;;;14.50;69.50;;;;;;6212518;23;20408;-73
2022/04/20 07:34:54;;;;;;;11.80;11.30;;;14.50;66.90;;;;;;6211912;23;20420;-72
2022/04/20 07:37:22;;;;;;;12.60;12.10;;;14.20;68.20;;;;;;6211993;23;20401;-73
2022/04/20 07:39:49;;;;;;;13.27;12.67;;;14.40;67.60;;;;;;6212109;23;20416;-73
2022/04/20 07:42:15;;;;;;;12.07;11.37;;;14.40;67.30;;;;;;6212400;23;20400;-73
2022/04/20 07:44:43;;;;;;;13.60;13.00;;;14.70;66.60;;;;;;6212354;23;20427;-73
2022/04/20 07:47:10;;;;;;;13.90;13.20;;;14.80;65.30;;;;;;6212169;23;20455;-73
2022/04/20 07:52:22;;;;;;;12.30;11.70;;;14.70;65.80;;;;;;6211859;23;20769;-72
2022/04/20 07:54:49;;;;;;;12.10;11.50;;;14.60;64.80;;;;;;6211580;23;20901;-73
2022/04/20 07:57:16;;;;;;;13.30;12.70;;;14.60;64.50;;;;;;6212141;23;20435;-73
2022/04/20 07:59:44;;;;;;;13.00;12.40;;;14.60;65.10;;;;;;6212195;23;20438;-73
2022/04/20 08:02:11;;;;;;;12.63;12.03;;;14.90;64.50;;;;;;6212185;23;20419;-73
2022/04/20 08:04:37;;;;;;;12.43;11.93;;;14.70;65.80;;;;;;6211951;23;20729;-72
2022/04/20 08:07:05;;;;;;;12.97;12.20;;;14.80;65.60;;;;;;6211902;23;20440;-73
2022/04/20 08:09:33;;;;;;;12.37;11.77;;;15.40;64.40;;;;;;6211896;23;20436;-72
2022/04/20 08:12:00;;;;;;;13.53;12.93;;;15.80;63.60;;;;;;6212459;23;20411;-71
2022/04/20 08:14:28;;;;;;;13.70;12.90;;;16.00;62.60;;;;;;6212369;23;20405;-73
2022/04/20 08:16:55;;;;;;;14.40;13.80;;;16.30;62.30;;;;;;6211614;23;20401;-73
2022/04/20 08:19:21;;;;;;;13.80;13.20;;;16.50;62.10;;;;;;6209893;23;20417;-74
2022/04/20 08:21:48;;;;;;;13.50;12.90;;;16.90;60.70;;;;;;6211999;23;20405;-73
2022/04/20 08:24:15;;;;;;;14.63;13.50;;;17.50;61.60;;;;;;6212072;23;20404;-74
2022/04/20 08:26:43;;;;;;;14.33;13.57;;;18.10;59.80;;;;;;6212302;23;20445;-74
2022/04/20 08:29:10;;;;;;;12.97;12.47;;;17.80;59.30;;;;;;6211513;23;20448;-74
2022/04/20 08:31:37;;;;;;;14.00;13.30;;;17.80;58.80;;;;;;6211843;23;20413;-74
2022/04/20 08:34:04;;;;;;;14.83;14.03;;;17.60;58.70;;;;;;6211789;23;20413;-73
2022/04/20 08:36:31;;;;;;;14.23;13.53;;;17.30;59.50;;;;;;6212114;23;20400;-74
2022/04/20 08:38:57;;;;;;;12.90;12.30;;;17.00;59.70;;;;;;6211884;23;20406;-74
2022/04/20 08:41:24;;;;;;;12.90;12.30;;;17.20;61.70;;;;;;6211627;23;20408;-74
2022/04/20 08:43:53;;;;;;;13.20;12.60;;;17.00;59.60;;;;;;6184883;23;20435;-74
2022/04/20 08:46:20;;;;;;;13.57;12.97;;;17.40;59.50;;;;;;6211843;23;20444;-74
2022/04/20 08:48:47;;;;;;;14.60;13.90;;;18.00;58.00;;;;;;6211813;23;20717;-74
2022/04/20 08:51:14;;;;;;;13.90;13.20;;;17.70;57.30;;;;;;6211886;23;20405;-74
2022/04/20 08:53:41;;;;;;;14.30;13.50;;;17.40;56.50;;;;;;6211900;23;20415;-74
2022/04/20 08:58:55;;;;;;;13.40;12.90;;;16.70;56.90;;;;;;6211493;23;20391;-73
2022/04/20 09:01:22;;;;;;;12.57;12.07;;;16.80;57.60;;;;;;6213050;23;20404;-73
2022/04/20 09:03:48;;;;;;;12.47;11.93;;;16.60;55.60;;;;;;6213568;23;20413;-72
2022/04/20 09:06:16;;;;;;;13.27;12.27;;;16.80;55.90;;;;;;6213659;23;20781;-73
2022/04/20 09:08:43;;;;;;;13.27;12.70;;;16.90;56.00;;;;;;6213480;23;20426;-72
2022/04/20 09:11:09;;;;;;;12.70;11.80;;;16.20;56.10;;;;;;6213760;23;20420;-73
2022/04/20 09:13:39;;;;;;;12.30;11.80;;;16.10;56.80;;;;;;6213427;23;20412;-74
2022/04/20 09:16:08;;;;;;;12.33;11.73;;;17.00;56.00;;;;;;6213008;23;20634;-73
2022/04/20 09:18:36;;;;;;;12.50;12.00;;;16.60;53.90;;;;;;6213809;23;20413;-72
2022/04/20 09:21:06;;;;;;;12.37;11.77;;;16.30;54.70;;;;;;6213381;23;20413;-73
2022/04/20 09:23:33;;;;;;;13.17;12.27;;;16.70;55.10;;;;;;6213187;23;20409;-73
2022/04/20 09:26:08;;;;;;;12.00;11.50;;;16.90;54.70;;;;;;6213158;23;20413;-74
2022/04/20 09:28:36;;;;;;;12.80;12.20;;;17.20;55.40;;;;;;6212841;23;20572;-73
2022/04/20 09:31:03;;;;;;;14.33;13.33;;;16.60;54.80;;;;;;6213478;23;20401;-73
2022/04/20 09:33:43;;;;;;;11.90;11.40;;;16.80;55.20;;;;;;6213390;23;20471;-73
2022/04/20 09:36:10;;;;;;;12.47;11.87;;;17.00;54.50;;;;;;6213460;23;20726;-74
2022/04/20 09:38:41;;;;;;;13.13;12.43;;;17.30;52.30;;;;;;6213488;23;20415;-73
2022/04/20 09:41:09;;;;;;;12.97;12.37;;;17.30;52.90;;;;;;6213126;23;20885;-73
2022/04/20 09:43:36;;;;;;;12.23;11.73;;;17.20;51.60;;;;;;6213193;23;20658;-73
2022/04/20 09:46:04;;;;;;;12.30;11.70;;;17.30;52.70;;;;;;6213061;23;20415;-73
2022/04/20 09:51:20;;;;;;;13.10;12.40;;;17.30;51.60;;;;;;6213286;23;20416;-72
2022/04/20 09:53:49;;;;;;;13.60;12.90;;;17.40;50.80;;;;;;6213393;23;20393;-73
2022/04/20 09:56:17;;;;;;;12.30;11.70;;;17.40;50.00;;;;;;6213293;23;20408;-75
2022/04/20 09:58:46;;;;;;;11.70;11.20;;;17.20;49.80;;;;;;6213514;23;20409;-75
2022/04/20 10:01:27;;;;;;;14.37;13.67;;;17.20;49.70;;;;;;6213209;23;20954;-74
2022/04/20 10:03:54;;;;;;;13.70;13.10;;;17.10;51.10;;;;;;6212418;23;20403;-73
2022/04/20 10:06:23;;;;;;;14.10;13.47;;;17.00;50.20;;;;;;6212818;23;20440;-73
2022/04/20 10:08:50;;;;;;;14.70;14.00;;;17.80;50.50;;;;;;6212435;23;20507;-74
2022/04/20 10:11:17;;;;;;;13.27;12.50;;;18.60;48.80;;;;;;6212811;23;20413;-74
2022/04/20 10:13:45;;;;;;;14.53;13.90;;;19.00;48.50;;;;;;6212670;23;20411;-74
2022/04/20 10:16:13;;;;;;;14.20;13.50;;;19.80;47.70;;;;;;6212709;23;20405;-74
2022/04/20 10:18:41;;;;;;;15.23;14.53;;;20.20;46.30;;;;;;6213280;23;20501;-74
2022/04/20 10:21:11;;;;;;;14.87;13.70;;;19.70;45.20;;;;;;6212815;23;20411;-74
2022/04/20 10:23:42;;;;;;;13.50;12.80;;;19.00;45.70;;;;;;6212715;23;20416;-73
2022/04/20 10:26:10;;;;;;;12.83;12.33;;;18.90;45.90;;;;;;6212574;23;20441;-73
2022/04/20 10:28:45;;;;;;;14.27;13.67;;;19.00;46.30;;;;;;6212354;23;20445;-73
2022/04/20 10:31:20;;;;;;;13.43;12.80;;;18.60;46.80;;;;;;6213163;23;20385;-74
2022/04/20 10:33:47;;;;;;;13.83;13.13;;;18.40;46.50;;;;;;6212625;23;20396;-74
2022/04/20 10:36:16;;;;;;;15.07;13.80;;;18.90;45.80;;;;;;6213115;23;20500;-74
2022/04/20 10:38:45;;;;;;;15.90;15.20;;;19.50;44.30;;;;;;6212712;23;20416;-74
2022/04/20 10:41:14;;;;;;;13.57;12.97;;;19.90;44.10;;;;;;6213414;23;20527;-74
2022/04/20 10:43:42;;;;;;;13.93;13.33;;;19.40;43.70;;;;;;6212864;23;20417;-73
2022/04/20 10:46:15;;;;;;;13.80;13.20;;;18.90;44.00;;;;;;6212431;23;20405;-74
2022/04/20 10:48:47;;;;;;;13.30;12.70;;;19.20;44.10;;;;;;6212925;23;20747;-74
2022/04/20 10:51:16;;;;;;;13.80;13.20;;;19.30;44.10;;;;;;6212781;23;20394;-74
2022/04/20 10:53:46;;;;;;;14.13;13.53;;;19.10;44.60;;;;;;6212826;23;20816;-73
2022/04/20 10:56:13;;;;;;;14.50;13.80;;;19.40;44.10;;;;;;6212781;23;20770;-74
2022/04/20 10:58:52;;;;;;;14.70;14.10;;;19.40;42.50;;;;;;6212454;23;20409;-74
2022/04/20 11:01:19;;;;;;;13.93;13.13;;;19.60;42.00;;;;;;6212384;23;20400;-73
2022/04/20 11:04:06;;;;;;;13.97;13.47;;;20.10;42.50;;;;;;6212471;23;20737;-73
2022/04/20 11:07:12;;;;;;;13.90;13.30;;;19.80;42.60;;;;;;6212409;23;20462;-73
2022/04/20 11:09:49;;;;;;;14.73;13.87;;;20.20;42.80;;;;;;6212965;23;20408;-73
2022/04/20 11:21:10;;;;;;;14.13;13.43;;;20.30;39.90;;;;;;6212784;23;20373;-74
2022/04/20 11:23:57;;;;;;;14.63;13.93;;;19.90;41.20;;;;;;6211922;23;20397;-73
2022/04/20 11:26:27;;;;;;;15.13;14.50;;;19.50;42.80;;;;;;6212221;23;20397;-74
2022/04/20 11:28:55;;;;;;;14.50;13.83;;;19.10;41.90;;;;;;6211433;23;20448;-74
2022/04/20 11:31:22;;;;;;;13.90;12.90;;;19.70;42.90;;;;;;6212593;23;20605;-75
2022/04/20 11:33:51;;;;;;;13.73;13.10;;;20.40;42.50;;;;;;6212224;23;20412;-74
2022/04/20 11:36:18;;;;;;;13.73;13.20;;;20.10;42.00;;;;;;6212393;23;20405;-74
2022/04/20 11:38:48;;;;;;;13.70;13.10;;;19.40;42.00;;;;;;6212412;23;20413;-73
2022/04/20 11:41:16;;;;;;;14.23;13.63;;;18.90;41.40;;;;;;6212651;23;20405;-74
2022/04/20 11:43:44;;;;;;;13.07;12.40;;;19.00;42.50;;;;;;6212904;23;20776;-75
2022/04/20 11:46:12;;;;;;;13.37;12.73;;;18.90;42.70;;;;;;6212339;23;20903;-74
2022/04/20 11:48:49;;;;;;;13.23;12.63;;;19.60;41.00;;;;;;6211926;23;20955;-74
2022/04/20 11:51:21;;;;;;;13.57;12.87;;;20.30;39.80;;;;;;6212649;23;20424;-74
2022/04/20 11:53:48;;;;;;;14.20;13.60;;;20.00;39.80;;;;;;6212409;23;20400;-74
2022/04/20 11:56:15;;;;;;;13.07;12.50;;;19.60;40.00;;;;;;6212248;23;20896;-74
2022/04/20 11:58:50;;;;;;;14.77;14.00;;;20.00;40.30;;;;;;6212100;23;20416;-74
2022/04/20 12:01:17;;;;;;;13.60;12.90;;;20.20;39.60;;;;;;6212377;23;20420;-74
2022/04/20 12:03:50;;;;;;;12.80;12.20;;;20.10;40.00;;;;;;6212091;23;20447;-74
2022/04/20 12:06:16;;;;;;;14.53;13.80;;;20.60;41.00;;;;;;6212226;23;20427;-75
2022/04/20 12:08:47;;;;;;;14.93;14.00;;;20.60;40.30;;;;;;6212313;23;20772;-73
2022/04/20 12:11:15;;;;;;;15.20;14.50;;;20.90;40.10;;;;;;6211933;23;20393;-74
2022/04/20 12:13:42;;;;;;;13.73;13.03;;;20.20;39.40;;;;;;6211878;23;21041;-73
2022/04/20 12:16:11;;;;;;;13.60;12.70;;;19.90;40.50;;;;;;6212015;23;20431;-74
2022/04/20 12:18:41;;;;;;;12.60;12.00;;;19.60;40.50;;;;;;6212026;23;20412;-73
2022/04/20 12:21:41;;;;;;;13.10;12.30;;;20.20;40.50;;;;;;6211736;23;20412;-73
2022/04/20 12:24:18;;;;;;;12.97;12.40;;;20.00;39.30;;;;;;6211770;23;20888;-73
2022/04/20 12:26:46;;;;;;;13.03;12.53;;;19.90;39.10;;;;;;6211922;23;20393;-73
2022/04/20 12:29:14;;;;;;;13.20;12.60;;;20.20;37.10;;;;;;6211723;23;20819;-73
2022/04/20 12:31:43;;;;;;;13.80;13.20;;;20.30;37.10;;;;;;6211773;23;20455;-73
2022/04/20 12:34:11;;;;;;;13.30;12.70;;;20.50;38.60;;;;;;6211803;23;20408;-73
2022/04/20 12:36:55;;;;;;;15.10;14.30;;;20.10;39.60;;;;;;6213581;23;20499;-72
2022/04/20 12:39:26;;;;;;;13.60;13.10;;;20.40;39.90;;;;;;6213874;23;20416;-73
2022/04/20 12:41:55;;;;;;;12.73;12.23;;;20.50;38.70;;;;;;6214035;23;20767;-73
2022/04/20 12:44:48;;;;;;;13.43;12.67;;;21.30;38.20;;;;;;6214092;23;20431;-72
2022/04/20 12:47:36;;;;;;;13.90;13.30;;;21.40;37.40;;;;;;6214188;23;20425;-73
2022/04/20 12:50:25;;;;;;;13.33;12.63;;;20.90;37.30;;;;;;6213474;23;20410;-75
2022/04/20 12:52:55;;;;;;;14.30;13.37;;;20.70;37.90;;;;;;6213709;23;20405;-75
2022/04/20 12:55:22;;;;;;;14.23;13.63;;;20.80;37.30;;;;;;6213884;23;20585;-75
2022/04/20 13:03:35;;;;;;;12.80;12.20;;;20.60;36.70;;;;;;6213714;23;20451;-75
2022/04/20 13:06:03;;;;;;;12.47;11.97;;;20.50;37.90;;;;;;6213614;23;20458;-74
2022/04/20 13:08:29;;;;;;;12.63;12.13;;;20.50;36.50;;;;;;6213870;23;20848;-75
2022/04/20 13:10:57;;;;;;;14.00;13.30;;;20.40;37.10;;;;;;6213808;23;20408;-75
2022/04/20 13:13:24;;;;;;;13.20;12.60;;;20.10;36.30;;;;;;6213695;23;20474;-75
2022/04/20 13:15:51;;;;;;;14.03;13.03;;;20.00;36.80;;;;;;6213329;23;20885;-75
2022/04/20 13:18:18;;;;;;;12.77;12.27;;;20.30;37.00;;;;;;6213424;23;20460;-74
2022/04/20 13:20:46;;;;;;;12.60;12.10;;;20.00;37.10;;;;;;6213566;23;20420;-75
2022/04/20 13:23:13;;;;;;;12.23;11.53;;;20.20;37.00;;;;;;6213972;23;20458;-74
2022/04/20 13:28:25;;;;;;;13.77;13.20;;;19.70;36.00;;;;;;6213034;23;20447;-75
2022/04/20 13:30:52;;;;;;;12.33;11.73;;;19.80;36.30;;;;;;6213690;23;20765;-75
2022/04/20 13:33:20;;;;;;;12.60;12.10;;;20.20;36.60;;;;;;6213243;23;20428;-75
2022/04/20 13:35:51;;;;;;;13.60;13.00;;;20.30;36.40;;;;;;6213107;23;20419;-75
2022/04/20 13:38:18;;;;;;;12.70;12.20;;;20.00;37.10;;;;;;6213238;23;20740;-76
2022/04/20 13:40:47;;;;;;;13.40;12.50;;;19.70;36.30;;;;;;6213565;23;20420;-74
2022/04/20 13:43:14;;;;;;;13.87;13.27;;;20.50;35.90;;;;;;6213171;23;20416;-74
2022/04/20 13:45:41;;;;;;;13.93;13.20;;;20.90;35.00;;;;;;6213318;23;20413;-73
2022/04/20 13:48:08;;;;;;;13.00;12.30;;;20.00;35.90;;;;;;6212229;23;20816;-74
2022/04/20 13:50:35;;;;;;;12.80;12.20;;;19.50;36.80;;;;;;6213462;23;20413;-75
2022/04/20 13:53:06;;;;;;;13.07;12.27;;;19.50;37.80;;;;;;6213016;23;20413;-75
2022/04/20 13:55:32;;;;;;;12.60;12.03;;;19.60;36.80;;;;;;6213271;23;20740;-74
2022/04/20 13:58:07;;;;;;;12.47;11.87;;;20.20;36.70;;;;;;6213735;23;20405;-74
2022/04/20 14:00:44;;;;;;;12.43;11.93;;;19.70;36.20;;;;;;6212873;23;20396;-74
2022/04/20 14:03:11;;;;;;;12.80;11.83;;;19.60;37.50;;;;;;6213051;23;20880;-74
2022/04/20 14:05:38;;;;;;;11.93;11.50;;;19.00;37.70;;;;;;6213335;23;20401;-74
2022/04/20 14:08:06;;;;;;;13.77;12.90;;;18.80;37.50;;;;;;6212503;23;20794;-74
2022/04/20 14:10:33;;;;;;;12.50;11.90;;;18.70;37.50;;;;;;6213100;23;20408;-73
2022/04/20 14:13:00;;;;;;;12.60;12.10;;;19.00;37.40;;;;;;6213223;23;20412;-74
2022/04/20 14:15:26;;;;;;;12.90;12.40;;;19.20;36.80;;;;;;6212792;23;20413;-74
2022/04/20 14:17:55;;;;;;;12.60;12.10;;;19.80;37.10;;;;;;6213544;23;20400;-74
2022/04/20 14:20:22;;;;;;;13.97;13.37;;;20.20;36.90;;;;;;6213371;23;20409;-74
2022/04/20 14:22:48;;;;;;;13.47;12.77;;;20.10;37.00;;;;;;6213091;23;20476;-74
2022/04/20 14:33:30;;;;;;;12.80;12.20;;;18.50;38.40;;;;;;6213383;23;20861;-74
2022/04/20 14:35:57;;;;;;;12.63;12.07;;;17.80;39.80;;;;;;6213337;23;20409;-75
2022/04/20 14:38:24;;;;;;;13.77;13.07;;;17.20;40.30;;;;;;6213074;23;20459;-74
2022/04/20 14:40:52;;;;;;;11.90;11.40;;;16.80;41.20;;;;;;6212758;23;20405;-72
2022/04/20 14:43:22;;;;;;;12.37;11.77;;;16.50;42.30;;;;;;6211883;23;20900;-74
2022/04/20 14:45:49;;;;;;;13.17;12.57;;;16.20;42.50;;;;;;6212229;23;20413;-74
2022/04/20 14:48:16;;;;;;;12.70;12.20;;;16.10;42.50;;;;;;6212551;23;20446;-73
2022/04/20 14:50:43;;;;;;;12.70;12.10;;;16.20;42.20;;;;;;6213550;23;20503;-74
2022/04/20 14:53:11;;;;;;;12.67;12.00;;;16.10;40.90;;;;;;6212719;23;20928;-75
2022/04/20 14:55:37;;;;;;;13.10;12.50;;;16.00;41.60;;;;;;6212826;23;20915;-74
2022/04/20 14:58:06;;;;;;;12.53;12.03;;;16.00;42.10;;;;;;6212650;23;20401;-74
2022/04/20 15:00:33;;;;;;;12.00;11.40;;;15.90;42.90;;;;;;6213320;23;20413;-73
2022/04/20 15:03:00;;;;;;;12.60;11.97;;;15.80;43.10;;;;;;6209732;23;20416;-74
2022/04/20 15:05:27;;;;;;;12.87;12.37;;;15.90;43.70;;;;;;6213720;23;20889;-73
2022/04/20 15:07:54;;;;;;;13.10;12.50;;;16.00;43.80;;;;;;6213469;23;20446;-74
2022/04/20 15:10:21;;;;;;;13.20;12.60;;;15.90;43.30;;;;;;6213317;23;20495;-74
2022/04/20 15:12:50;;;;;;;13.13;12.43;;;15.80;41.90;;;;;;6214185;23;20409;-74
2022/04/20 15:15:18;;;;;;;13.03;12.23;;;15.80;42.90;;;;;;6211627;23;20419;-73
2022/04/20 15:17:45;;;;;;;12.20;11.70;;;15.90;44.10;;;;;;6213828;23;20466;-74
2022/04/20 15:20:12;;;;;;;12.90;12.30;;;16.00;44.80;;;;;;6213767;23;20805;-73
2022/04/20 15:22:41;;;;;;;11.80;11.30;;;16.10;44.50;;;;;;6213643;23;20416;-74
2022/04/20 15:25:08;;;;;;;13.10;12.50;;;16.10;42.90;;;;;;6213695;23;20507;-73
2022/04/20 15:27:35;;;;;;;13.50;12.90;;;16.00;43.90;;;;;;6213332;23;20433;-72
2022/04/20 15:30:02;;;;;;;13.53;12.93;;;15.90;43.90;;;;;;6212383;23;20447;-72
2022/04/20 15:32:31;;;;;;;13.60;13.00;;;15.80;44.00;;;;;;6206350;23;20413;-74
2022/04/20 15:34:58;;;;;;;13.80;13.20;;;15.90;45.00;;;;;;6212292;23;20408;-73
2022/04/20 15:37:25;;;;;;;13.33;12.73;;;15.90;44.30;;;;;;6212037;23;20416;-74
2022/04/20 15:39:52;;;;;;;13.37;12.80;;;15.90;44.80;;;;;;6212093;23;20401;-74
2022/04/20 15:42:20;;;;;;;12.93;12.33;;;16.00;45.30;;;;;;6211912;23;20447;-75
2022/04/20 15:44:47;;;;;;;12.67;12.07;;;15.90;45.70;;;;;;6212260;23;20441;-74
2022/04/20 15:47:15;;;;;;;13.73;13.03;;;15.90;45.10;;;;;;6212188;23;20409;-73
2022/04/20 15:49:43;;;;;;;12.90;12.20;;;15.80;45.20;;;;;;6211283;23;21037;-75
2022/04/20 15:52:10;;;;;;;13.10;12.30;;;15.90;45.50;;;;;;6212634;23;20405;-73
2022/04/20 15:54:36;;;;;;;13.50;12.90;;;15.90;45.50;;;;;;6211327;23;20412;-73
2022/04/20 16:02:32;;;;;;;13.00;12.40;;;15.80;45.70;;;;;;6211711;23;20428;-74
2022/04/20 16:05:00;;;;;;;12.60;12.10;;;15.60;46.00;;;;;;6211973;23;20734;-74
2022/04/20 16:07:27;;;;;;;13.60;12.73;;;15.70;47.00;;;;;;6211640;23;20451;-72
2022/04/20 16:09:54;;;;;;;13.43;12.73;;;15.80;46.50;;;;;;6209976;23;20458;-74
2022/04/20 16:12:20;;;;;;;12.67;11.97;;;15.80;46.90;;;;;;6211246;23;20409;-75
2022/04/20 16:14:47;;;;;;;12.90;12.20;;;15.80;47.20;;;;;;6211133;23;20487;-75
2022/04/20 16:17:14;;;;;;;11.97;11.33;;;15.90;46.30;;;;;;6211791;23;20730;-75
2022/04/20 16:19:40;;;;;;;13.33;12.73;;;15.90;46.70;;;;;;6211727;23;20401;-75
2022/04/20 16:22:09;;;;;;;13.93;13.23;;;15.90;46.10;;;;;;6209439;23;20408;-74
2022/04/20 16:24:37;;;;;;;12.97;12.40;;;16.00;46.90;;;;;;6211673;23;20435;-73
2022/04/20 16:27:04;;;;;;;13.87;13.27;;;16.00;46.60;;;;;;6211088;23;20428;-73
2022/04/20 16:29:30;;;;;;;13.10;12.50;;;15.90;46.00;;;;;;6188150;23;96637;-73
2022/04/20 16:31:57;;;;;;;13.23;12.70;;;15.80;46.50;;;;;;6206306;23;20773;-75
2022/04/20 16:34:24;;;;;;;12.80;12.20;;;15.80;46.30;;;;;;6212792;23;20408;-73
2022/04/20 16:36:53;;;;;;;12.77;12.27;;;15.60;46.00;;;;;;6212357;23;20413;-72
2022/04/20 16:39:22;;;;;;;12.47;11.97;;;15.50;46.40;;;;;;6212332;23;21066;-73
2022/04/20 16:41:49;;;;;;;12.40;11.80;;;15.60;46.80;;;;;;6213343;23;20401;-74
2022/04/20 16:44:16;;;;;;;13.17;12.57;;;15.50;46.00;;;;;;6213026;23;20423;-74
2022/04/20 16:46:43;;;;;;;13.90;13.30;;;15.50;46.30;;;;;;6213160;23;20405;-73
2022/04/20 16:49:10;;;;;;;13.30;12.40;;;15.60;46.60;;;;;;6212681;23;20440;-73
2022/04/20 16:51:37;;;;;;;12.73;12.13;;;15.60;45.60;;;;;;6212735;23;20417;-73
2022/04/20 16:54:04;;;;;;;12.83;12.23;;;15.50;46.10;;;;;;6212655;23;20401;-73
2022/04/20 16:56:32;;;;;;;12.83;12.33;;;15.50;45.90;;;;;;6212371;23;20920;-74
2022/04/20 16:58:59;;;;;;;11.93;11.43;;;15.40;45.70;;;;;;6212515;23;20727;-74
2022/04/20 17:01:26;;;;;;;13.20;12.50;;;15.40;45.60;;;;;;6212494;23;20714;-74
2022/04/20 17:03:53;;;;;;;11.80;11.40;;;15.30;45.40;;;;;;6212030;23;20416;-73
2022/04/20 17:06:20;;;;;;;12.57;11.97;;;15.30;45.40;;;;;;6211897;23;20537;-74
2022/04/20 17:08:46;;;;;;;12.27;11.77;;;15.30;46.00;;;;;;6212202;23;20447;-74
2022/04/20 17:11:13;;;;;;;11.60;11.00;;;15.30;45.80;;;;;;6212226;23;20409;-74
2022/04/20 17:13:41;;;;;;;12.27;11.67;;;15.30;45.30;;;;;;6212100;23;20720;-74
2022/04/20 17:16:08;;;;;;;12.43;11.83;;;15.20;45.10;;;;;;6211536;23;20409;-73
2022/04/20 17:18:35;;;;;;;12.37;11.87;;;15.10;45.10;;;;;;6211532;23;20409;-73
2022/04/20 17:26:37;;;;;;;13.00;12.40;;;15.00;47.80;;;;;;6213861;23;20387;-74
2022/04/20 17:29:07;;;;;;;13.43;12.63;;;14.90;48.60;;;;;;6213440;23;20536;-73
2022/04/20 17:31:35;;;;;;;12.43;11.83;;;14.90;48.50;;;;;;6213990;23;20400;-74
2022/04/20 17:34:02;;;;;;;12.13;11.53;;;14.80;48.60;;;;;;6213364;23;20459;-74
2022/04/20 17:36:39;;;;;;;11.87;11.37;;;14.70;48.20;;;;;;6214063;23;20432;-73
2022/04/20 17:39:08;;;;;;;12.63;11.87;;;14.70;49.00;;;;;;6213266;23;20393;-72
2022/04/20 17:41:36;;;;;;;11.83;11.17;;;14.70;47.40;;;;;;6213794;23;20405;-73
2022/04/20 17:44:03;;;;;;;12.30;11.60;;;14.60;46.90;;;;;;6213575;23;20470;-74
2022/04/20 17:46:31;;;;;;;12.87;12.27;;;14.70;47.30;;;;;;6214044;23;20416;-74
2022/04/20 17:48:58;;;;;;;11.80;11.20;;;14.60;47.20;;;;;;6213513;23;20464;-73
2022/04/20 17:51:25;;;;;;;12.03;11.53;;;14.60;47.30;;;;;;6213481;23;20408;-74
2022/04/20 17:53:52;;;;;;;12.13;11.63;;;14.50;48.10;;;;;;6213655;23;20416;-73
2022/04/20 17:56:19;;;;;;;11.77;11.00;;;14.40;48.40;;;;;;6213405;23;20899;-72
2022/04/20 17:58:46;;;;;;;12.50;11.70;;;14.20;48.50;;;;;;6213799;23;20416;-72
2022/04/20 18:01:13;;;;;;;11.90;11.33;;;14.20;48.50;;;;;;6213419;23;20408;-74
2022/04/20 18:03:41;;;;;;;11.53;10.93;;;14.10;48.90;;;;;;6213606;23;20405;-74
2022/04/20 18:06:08;;;;;;;11.50;11.00;;;14.10;48.80;;;;;;6212977;23;20413;-73
2022/04/20 18:08:35;;;;;;;11.33;10.83;;;14.00;49.10;;;;;;6213200;23;20409;-73
2022/04/20 18:11:02;;;;;;;12.33;11.27;;;14.00;48.60;;;;;;6213303;23;20417;-72
2022/04/20 18:13:28;;;;;;;11.07;10.67;;;13.90;49.30;;;;;;6213852;23;20409;-74
2022/04/20 18:15:55;;;;;;;11.67;10.87;;;13.80;49.30;;;;;;6213038;23;20409;-75
2022/04/20 18:18:22;;;;;;;11.90;11.30;;;13.80;50.10;;;;;;6213429;23;20409;-74
2022/04/20 18:20:50;;;;;;;11.67;10.97;;;13.70;50.00;;;;;;6213266;23;20533;-72
2022/04/20 18:23:17;;;;;;;10.90;10.30;;;13.70;50.50;;;;;;6213525;23;20409;-74
2022/04/20 18:25:44;;;;;;;11.47;10.67;;;13.60;50.90;;;;;;6213724;23;20412;-75
2022/04/20 18:28:11;;;;;;;12.00;11.40;;;13.50;51.10;;;;;;6213149;23;20432;-73
2022/04/20 18:30:40;;;;;;;11.93;11.23;;;13.40;51.30;;;;;;6213357;23;20440;-74
2022/04/20 18:33:07;;;;;;;11.40;10.70;;;13.30;52.00;;;;;;6212740;23;20404;-75
2022/04/20 18:35:34;;;;;;;12.30;11.70;;;13.30;52.30;;;;;;6212874;23;20400;-73
2022/04/20 18:38:02;;;;;;;11.67;11.07;;;13.30;52.80;;;;;;6213202;23;20409;-73
2022/04/20 18:40:29;;;;;;;12.10;11.43;;;13.20;53.10;;;;;;6212994;23;20405;-73
2022/04/20 18:42:56;;;;;;;12.50;11.80;;;13.10;53.20;;;;;;6213128;23;20419;-73
2022/04/20 18:45:23;;;;;;;12.80;12.00;;;13.10;52.60;;;;;;6213088;23;20459;-73
2022/04/20 18:47:50;;;;;;;12.80;11.87;;;13.20;50.90;;;;;;6213370;23;20417;-73
2022/04/20 18:50:17;;;;;;;13.43;12.57;;;13.30;50.40;;;;;;6212788;23;20451;-74
2022/04/20 18:58:16;;;;;;;13.80;13.03;;;13.50;50.30;;;;;;6212942;23;20868;-74
2022/04/20 19:00:45;;;;;;;12.70;12.00;;;13.30;50.70;;;;;;6213213;23;20490;-73
2022/04/20 19:03:12;;;;;;;12.90;12.10;;;13.20;50.90;;;;;;6213126;23;20655;-73
2022/04/20 19:05:38;;;;;;;12.53;11.87;;;13.10;51.10;;;;;;6212707;23;20916;-73
2022/04/20 19:08:05;;;;;;;12.50;11.67;;;13.00;51.40;;;;;;6213005;23;20491;-73
2022/04/20 19:10:34;;;;;;;12.40;11.70;;;13.00;51.90;;;;;;6212850;23;20464;-75
2022/04/20 19:13:01;;;;;;;12.53;11.83;;;13.00;52.40;;;;;;6210655;23;20417;-73
2022/04/20 19:15:28;;;;;;;12.77;12.07;;;12.90;52.60;;;;;;6213132;23;20401;-74
2022/04/20 19:17:55;;;;;;;12.27;11.57;;;12.80;52.80;;;;;;6212327;23;20409;-74
2022/04/20 19:20:21;;;;;;;10.97;10.37;;;12.70;53.30;;;;;;6212771;23;20409;-73
2022/04/20 19:22:48;;;;;;;11.97;11.13;;;12.60;53.60;;;;;;6212159;23;21033;-74
2022/04/20 19:25:15;;;;;;;12.10;11.50;;;12.50;54.00;;;;;;6212916;23;20413;-73
2022/04/20 19:27:44;;;;;;;12.40;11.60;;;12.50;53.70;;;;;;6212919;23;20514;-73
2022/04/20 19:30:12;;;;;;;12.20;11.43;;;12.50;53.60;;;;;;6212448;23;20445;-74
2022/04/20 19:32:39;;;;;;;12.67;12.00;;;12.50;53.70;;;;;;6212632;23;20735;-73
2022/04/20 19:35:07;;;;;;;12.53;11.83;;;12.40;53.90;;;;;;6212467;23;20412;-73
2022/04/20 19:37:34;;;;;;;11.50;10.90;;;12.30;54.20;;;;;;6212620;23;20408;-73
2022/04/20 19:40:00;;;;;;;12.47;11.60;;;12.20;54.40;;;;;;6212501;23;20411;-73
2022/04/20 19:42:27;;;;;;;12.20;11.50;;;12.20;53.90;;;;;;6211820;23;20417;-74
2022/04/20 19:44:57;;;;;;;12.40;11.70;;;12.10;55.00;;;;;;6211720;23;20416;-73
2022/04/20 19:47:23;;;;;;;12.17;11.43;;;11.90;56.00;;;;;;6212311;23;20420;-73
2022/04/20 19:49:50;;;;;;;12.30;11.53;;;11.70;57.40;;;;;;6212369;23;20447;-73
2022/04/20 19:52:17;;;;;;;12.10;11.40;;;11.60;59.00;;;;;;6212762;23;20405;-73
2022/04/20 19:54:43;;;;;;;12.33;11.63;;;11.40;59.00;;;;;;6212316;23;20888;-73
2022/04/20 19:57:11;;;;;;;11.60;10.80;;;11.30;58.40;;;;;;6212299;23;20409;-73
2022/04/20 19:59:38;;;;;;;12.10;11.40;;;11.20;59.30;;;;;;6212620;23;20416;-73
2022/04/20 20:02:09;;;;;;;11.67;10.97;;;11.20;57.60;;;;;;6212206;23;20416;-73